Time;durP1;ratioP1;P1;durP2;ratioP2;P2;SDS_P1;SDS_P2;PMS_P1;PMS_P2;Temp;Humidity;BMP_temperature;BMP_pressure;BME280_temperature;BME280_humidity;BME280_pressure;Samples;Min_cycle;Max_cycle;Signal;HPM_P1;HPM_P2
2022/10/26 00:00:27;;;;;;;13.10;9.30;;;14.70;96.60;;;;;;5056439;28;20024;-61
2022/10/26 00:02:54;;;;;;;14.95;10.75;;;14.70;96.60;;;;;;5051464;28;20439;-61
2022/10/26 00:05:20;;;;;;;13.40;9.27;;;14.70;96.80;;;;;;5051535;28;20476;-60
2022/10/26 00:07:47;;;;;;;13.55;8.48;;;14.70;96.80;;;;;;5053089;28;20415;-61
2022/10/26 00:10:13;;;;;;;16.90;11.38;;;14.70;96.80;;;;;;5064901;28;20024;-60
2022/10/26 00:12:39;;;;;;;15.15;11.32;;;14.70;96.90;;;;;;5065620;28;20492;-60
2022/10/26 00:15:06;;;;;;;15.10;9.35;;;14.70;96.90;;;;;;5057231;28;20059;-60
2022/10/26 00:17:32;;;;;;;14.43;10.88;;;14.70;97.00;;;;;;5064486;28;20488;-60
2022/10/26 00:19:59;;;;;;;12.43;9.18;;;14.70;97.10;;;;;;5061044;28;20033;-61
2022/10/26 00:22:25;;;;;;;13.30;9.68;;;14.70;97.10;;;;;;5051284;28;20519;-61
2022/10/26 00:24:51;;;;;;;13.52;9.32;;;14.70;97.20;;;;;;5051047;28;20083;-61
2022/10/26 00:27:17;;;;;;;11.27;8.55;;;14.70;97.30;;;;;;5058182;28;20028;-60
2022/10/26 00:29:43;;;;;;;13.02;8.98;;;14.60;97.30;;;;;;5054734;28;20357;-60
2022/10/26 00:32:08;;;;;;;13.52;10.75;;;14.70;97.30;;;;;;5051269;28;20480;-61
2022/10/26 00:34:34;;;;;;;10.52;8.00;;;14.70;97.40;;;;;;5054058;28;20033;-60
2022/10/26 00:37:00;;;;;;;14.35;10.38;;;14.70;97.30;;;;;;5056149;28;20397;-60
2022/10/26 00:39:25;;;;;;;13.20;10.07;;;14.70;97.40;;;;;;5056769;28;20036;-60
2022/10/26 00:41:51;;;;;;;15.20;11.13;;;14.60;97.40;;;;;;5046651;28;20041;-61
2022/10/26 00:44:44;;;;;;;13.93;10.27;;;14.70;97.50;;;;;;5064724;28;20045;-61
2022/10/26 00:47:32;;;;;;;13.10;10.45;;;14.60;97.10;;;;;;5060328;28;20028;-60
2022/10/26 00:50:03;;;;;;;15.82;11.95;;;14.60;97.10;;;;;;5010161;28;20485;-61
2022/10/26 00:52:29;;;;;;;14.13;10.80;;;14.60;97.60;;;;;;5064159;28;20028;-60
2022/10/26 00:54:55;;;;;;;14.77;9.60;;;14.60;97.60;;;;;;5057805;28;20643;-61
2022/10/26 00:57:21;;;;;;;14.38;9.32;;;14.60;97.70;;;;;;5065615;28;20032;-61
2022/10/26 00:59:50;;;;;;;14.93;11.75;;;14.60;97.80;;;;;;5050487;28;20043;-60
2022/10/26 01:02:15;;;;;;;10.05;7.93;;;14.60;97.70;;;;;;5059909;28;20391;-61
2022/10/26 01:04:41;;;;;;;12.40;9.30;;;14.60;97.80;;;;;;5055819;28;20325;-61
2022/10/26 01:07:08;;;;;;;13.35;9.90;;;14.60;97.80;;;;;;5052169;28;20037;-61
2022/10/26 01:09:34;;;;;;;13.27;9.27;;;14.60;97.80;;;;;;5059897;28;20468;-61
2022/10/26 01:12:00;;;;;;;14.45;11.02;;;14.60;97.80;;;;;;5061519;28;20055;-60
2022/10/26 01:14:27;;;;;;;12.43;8.90;;;14.60;97.70;;;;;;5064432;28;20052;-61
2022/10/26 01:16:52;;;;;;;12.20;8.60;;;14.60;97.70;;;;;;5050712;28;20033;-60
2022/10/26 01:19:57;;;;;;;10.52;7.47;;;14.60;97.90;;;;;;5050261;28;20398;-62
2022/10/26 01:22:35;;;;;;;10.70;7.68;;;14.60;97.50;;;;;;5000851;28;20409;-61
2022/10/26 01:25:34;;;;;;;13.55;8.57;;;14.60;97.90;;;;;;5049962;28;20068;-61
2022/10/26 01:28:06;;;;;;;13.48;9.73;;;14.60;97.60;;;;;;5050918;28;20033;-60
2022/10/26 01:30:40;;;;;;;14.80;10.90;;;14.70;97.80;;;;;;5053035;28;20395;-61
2022/10/26 01:33:33;;;;;;;15.40;11.05;;;14.60;97.60;;;;;;5051203;28;20132;-60
2022/10/26 01:36:01;;;;;;;15.00;9.77;;;14.60;97.30;;;;;;5050303;28;20108;-60
2022/10/26 01:38:53;;;;;;;17.25;12.02;;;14.60;97.60;;;;;;5048292;28;20079;-61
2022/10/26 01:41:53;;;;;;;18.40;12.25;;;14.60;97.70;;;;;;5050623;28;20024;-60
2022/10/26 01:44:22;;;;;;;18.02;13.55;;;14.60;97.30;;;;;;5031931;28;20029;-60
2022/10/26 01:46:50;;;;;;;19.23;13.10;;;14.50;97.80;;;;;;5049537;28;20052;-60
2022/10/26 01:49:21;;;;;;;19.90;13.10;;;14.50;98.00;;;;;;5049187;28;20107;-61
2022/10/26 01:51:48;;;;;;;21.60;13.15;;;14.50;98.10;;;;;;5046645;28;20071;-60
2022/10/26 01:54:14;;;;;;;19.90;12.95;;;14.50;98.20;;;;;;5054763;28;20045;-61
2022/10/26 01:56:43;;;;;;;22.27;13.90;;;14.40;98.30;;;;;;5051840;28;20021;-59
2022/10/26 01:59:28;;;;;;;22.75;14.85;;;14.40;98.50;;;;;;5056886;28;20358;-60
2022/10/26 02:02:12;;;;;;;16.98;10.45;;;14.40;98.70;;;;;;5056455;28;20040;-60
2022/10/26 02:05:05;;;;;;;20.60;11.80;;;14.40;98.30;;;;;;5049046;28;20033;-61
2022/10/26 02:07:37;;;;;;;20.55;12.77;;;14.40;98.80;;;;;;5058519;28;20074;-59
2022/10/26 02:10:29;;;;;;;21.15;14.27;;;14.40;98.90;;;;;;5060898;28;20020;-60
2022/10/26 02:13:42;;;;;;;22.15;14.70;;;14.30;98.60;;;;;;5031899;28;20380;-60
2022/10/26 02:16:18;;;;;;;21.95;14.60;;;14.30;98.90;;;;;;5018453;28;20069;-60
2022/10/26 02:19:01;;;;;;;21.17;13.18;;;14.30;99.20;;;;;;5021815;28;20116;-60
2022/10/26 02:21:47;;;;;;;18.23;11.55;;;14.40;99.10;;;;;;5051005;28;20033;-60
2022/10/26 02:24:15;;;;;;;16.73;11.25;;;14.30;98.80;;;;;;5053561;28;20091;-59
2022/10/26 02:26:45;;;;;;;18.52;11.65;;;14.30;99.30;;;;;;5055224;28;20025;-60
2022/10/26 02:29:16;;;;;;;19.15;13.13;;;14.30;99.40;;;;;;5062928;28;20094;-60
2022/10/26 02:31:42;;;;;;;;;;;14.30;99.40;;;;;;5050819;28;20017;-61
2022/10/26 02:34:12;;;;;;;15.27;9.57;;;14.30;98.70;;;;;;5049572;28;19912;-60
2022/10/26 02:36:43;;;;;;;18.00;11.57;;;14.30;99.30;;;;;;5062115;28;20033;-60
2022/10/26 02:39:10;;;;;;;19.83;10.82;;;14.30;99.40;;;;;;5070254;28;20642;-60
2022/10/26 02:41:38;;;;;;;19.33;11.68;;;14.30;99.50;;;;;;5068788;28;20033;-60
2022/10/26 02:44:27;;;;;;;17.15;10.43;;;14.30;99.60;;;;;;5051602;28;20040;-60
2022/10/26 02:46:54;;;;;;;18.60;11.25;;;14.20;99.10;;;;;;5058097;28;20033;-60
2022/10/26 02:49:20;;;;;;;16.88;9.77;;;14.30;99.70;;;;;;5065884;28;20171;-61
2022/10/26 02:52:01;;;;;;;16.65;10.85;;;14.30;99.80;;;;;;5058972;28;20028;-61
2022/10/26 02:55:13;;;;;;;15.50;9.00;;;14.30;99.80;;;;;;5062307;28;20052;-61
2022/10/26 02:57:48;;;;;;;15.13;9.63;;;14.20;99.30;;;;;;5075471;28;20036;-61
2022/10/26 03:00:17;;;;;;;16.27;9.85;;;14.30;99.70;;;;;;5076501;28;20039;-61
2022/10/26 03:02:44;;;;;;;17.00;10.75;;;14.20;99.80;;;;;;5079202;28;20036;-60
2022/10/26 03:05:32;;;;;;;18.02;11.27;;;14.30;99.90;;;;;;5079884;28;20031;-60
2022/10/26 03:07:59;;;;;;;17.33;10.73;;;14.30;99.80;;;;;;5073368;28;20048;-61
2022/10/26 03:10:25;;;;;;;15.65;10.07;;;14.20;99.80;;;;;;5076686;28;20123;-60
2022/10/26 03:12:51;;;;;;;15.30;10.82;;;14.30;99.90;;;;;;5084836;28;20467;-61
2022/10/26 03:15:17;;;;;;;14.75;10.68;;;14.20;99.90;;;;;;5084980;28;20173;-61
2022/10/26 03:17:42;;;;;;;16.27;10.50;;;14.20;99.90;;;;;;5087872;28;20060;-61
2022/10/26 03:20:09;;;;;;;12.75;9.80;;;14.30;99.90;;;;;;5079197;28;20016;-60
2022/10/26 03:22:35;;;;;;;14.50;9.98;;;14.30;99.90;;;;;;5072768;28;20027;-61
2022/10/26 03:25:00;;;;;;;13.68;9.07;;;14.20;99.90;;;;;;5078325;28;20383;-60
2022/10/26 03:27:26;;;;;;;13.80;9.85;;;14.20;99.90;;;;;;5080005;28;20038;-60
2022/10/26 03:29:52;;;;;;;13.50;9.73;;;14.20;99.90;;;;;;5070132;28;20538;-60
2022/10/26 03:32:18;;;;;;;13.15;9.65;;;14.20;99.90;;;;;;5075464;28;20117;-60
2022/10/26 03:34:44;;;;;;;11.75;9.35;;;14.20;99.90;;;;;;5072273;28;20021;-61
2022/10/26 03:37:10;;;;;;;12.93;8.80;;;14.20;99.80;;;;;;5072573;28;20108;-60
2022/10/26 03:39:36;;;;;;;11.82;8.93;;;14.20;99.80;;;;;;5072868;28;20064;-61
2022/10/26 03:42:01;;;;;;;10.75;7.88;;;14.20;99.70;;;;;;5077663;28;20036;-60
2022/10/26 03:44:27;;;;;;;8.55;7.05;;;14.20;99.70;;;;;;5071230;28;20050;-60
2022/10/26 03:46:52;;;;;;;10.63;7.90;;;14.20;99.70;;;;;;5071736;28;20480;-60
2022/10/26 03:49:18;;;;;;;9.57;7.00;;;14.20;99.70;;;;;;5074665;28;20072;-60
2022/10/26 03:51:44;;;;;;;8.48;6.70;;;14.20;99.60;;;;;;5070263;28;20064;-61
2022/10/26 03:54:10;;;;;;;9.05;7.30;;;14.20;99.60;;;;;;5073479;28;20060;-61
2022/10/26 03:56:36;;;;;;;8.73;6.65;;;14.20;99.60;;;;;;5071535;28;20032;-60
2022/10/26 03:59:01;;;;;;;10.30;7.40;;;14.20;99.40;;;;;;5070678;28;20024;-60
2022/10/26 04:01:27;;;;;;;8.98;6.65;;;14.20;99.30;;;;;;5072384;28;20036;-60
2022/10/26 04:03:52;;;;;;;9.90;7.05;;;14.20;99.30;;;;;;5068169;28;20021;-60
2022/10/26 04:06:18;;;;;;;9.27;7.35;;;14.20;99.20;;;;;;5066846;28;20036;-61
2022/10/26 04:08:43;;;;;;;9.02;7.05;;;14.20;99.30;;;;;;5070781;28;20097;-61
2022/10/26 04:11:09;;;;;;;8.15;6.28;;;14.20;99.30;;;;;;5072083;28;20031;-60
2022/10/26 04:13:35;;;;;;;8.90;6.88;;;14.20;99.30;;;;;;5071466;28;20035;-60
2022/10/26 04:16:00;;;;;;;9.30;6.95;;;14.20;99.30;;;;;;5071304;28;20102;-60
2022/10/26 04:18:26;;;;;;;11.13;8.02;;;14.20;99.30;;;;;;5072572;28;20487;-60
2022/10/26 04:20:52;;;;;;;9.75;7.53;;;14.20;99.20;;;;;;5072129;28;20029;-60
2022/10/26 04:23:18;;;;;;;11.30;8.32;;;14.20;99.10;;;;;;5069821;28;20044;-60
2022/10/26 04:25:44;;;;;;;10.40;8.02;;;14.10;99.10;;;;;;5069492;28;20044;-60
2022/10/26 04:28:11;;;;;;;10.27;7.38;;;14.10;99.00;;;;;;5072678;28;20089;-60
2022/10/26 04:30:37;;;;;;;8.35;6.55;;;14.10;99.20;;;;;;5071525;28;20038;-60
2022/10/26 04:33:04;;;;;;;10.43;7.32;;;14.10;98.80;;;;;;5070816;28;20531;-60
2022/10/26 04:35:30;;;;;;;9.18;6.78;;;14.00;98.50;;;;;;5084198;28;20016;-60
2022/10/26 04:38:00;;;;;;;9.05;6.60;;;14.00;98.40;;;;;;5079917;28;20635;-61
2022/10/26 04:40:31;;;;;;;8.35;6.70;;;14.00;98.50;;;;;;5070277;28;20030;-61
2022/10/26 04:42:57;;;;;;;7.63;5.97;;;13.90;98.30;;;;;;5071064;28;20062;-60
2022/10/26 04:45:23;;;;;;;8.13;6.15;;;13.90;98.40;;;;;;5071459;28;20032;-60
2022/10/26 04:47:59;;;;;;;7.20;5.43;;;13.90;98.10;;;;;;5070705;28;20434;-61
2022/10/26 04:50:26;;;;;;;6.82;5.50;;;13.80;97.70;;;;;;5070872;28;20032;-61
2022/10/26 04:52:52;;;;;;;7.30;6.03;;;13.80;97.80;;;;;;5070261;28;20383;-61
2022/10/26 04:55:18;;;;;;;7.75;5.22;;;13.80;97.80;;;;;;5068890;28;20045;-61
2022/10/26 04:57:44;;;;;;;7.07;5.40;;;13.80;97.80;;;;;;5070227;28;20115;-61
2022/10/26 05:00:11;;;;;;;6.47;5.53;;;13.70;97.80;;;;;;5071109;28;20464;-60
2022/10/26 05:02:36;;;;;;;7.05;5.50;;;13.70;97.80;;;;;;5068805;28;20056;-61
2022/10/26 05:05:02;;;;;;;7.70;5.65;;;13.70;98.10;;;;;;5071052;28;20063;-60
2022/10/26 05:07:28;;;;;;;7.28;5.72;;;13.70;97.80;;;;;;5071015;28;20020;-61
2022/10/26 05:09:53;;;;;;;8.75;6.53;;;13.70;97.70;;;;;;5069309;28;20068;-60
2022/10/26 05:12:19;;;;;;;8.65;6.22;;;13.70;97.80;;;;;;5066171;28;20032;-60
2022/10/26 05:14:45;;;;;;;10.25;7.72;;;13.60;97.80;;;;;;5068814;28;20468;-61
2022/10/26 05:17:10;;;;;;;9.85;7.22;;;13.70;98.20;;;;;;5068182;28;20392;-61
2022/10/26 05:19:36;;;;;;;9.13;7.05;;;13.70;98.20;;;;;;5070529;28;20029;-60
2022/10/26 05:22:02;;;;;;;10.40;7.07;;;13.70;98.00;;;;;;5078456;28;20036;-60
2022/10/26 05:24:27;;;;;;;11.57;8.48;;;13.70;98.00;;;;;;5078609;28;20040;-61
2022/10/26 05:26:53;;;;;;;10.65;8.68;;;13.70;98.20;;;;;;5066822;28;20119;-60
2022/10/26 05:29:19;;;;;;;11.18;8.55;;;13.70;98.20;;;;;;5065054;28;20075;-60
2022/10/26 05:31:44;;;;;;;11.75;8.88;;;13.70;98.20;;;;;;5068177;28;20029;-61
2022/10/26 05:34:10;;;;;;;11.38;8.13;;;13.70;98.30;;;;;;5072362;28;20021;-61
2022/10/26 05:36:35;;;;;;;10.98;8.60;;;13.70;98.30;;;;;;5074408;28;20032;-61
2022/10/26 05:39:01;;;;;;;12.80;9.35;;;13.70;98.30;;;;;;5080134;28;20532;-60
2022/10/26 05:41:27;;;;;;;10.63;7.70;;;13.70;98.30;;;;;;5074651;28;20520;-61
2022/10/26 05:43:52;;;;;;;10.93;8.30;;;13.70;98.40;;;;;;5074393;28;20028;-61
2022/10/26 05:46:18;;;;;;;11.20;8.68;;;13.70;98.40;;;;;;5070359;28;21168;-61
2022/10/26 05:48:43;;;;;;;10.63;8.45;;;13.80;98.60;;;;;;5077742;28;20036;-61
2022/10/26 05:51:11;;;;;;;10.20;7.80;;;13.80;98.70;;;;;;5066137;28;20453;-60
2022/10/26 05:53:37;;;;;;;10.68;8.07;;;13.80;98.70;;;;;;5076419;28;20111;-61
2022/10/26 05:56:12;;;;;;;9.13;7.18;;;13.80;98.60;;;;;;5072515;28;20064;-61
2022/10/26 05:58:38;;;;;;;8.90;6.65;;;13.90;98.50;;;;;;5063159;28;20078;-61
2022/10/26 06:01:30;;;;;;;10.02;7.97;;;13.90;98.40;;;;;;5066588;28;20036;-61
2022/10/26 06:04:17;;;;;;;10.25;7.78;;;13.90;98.10;;;;;;5070453;28;20044;-61
2022/10/26 06:06:45;;;;;;;10.48;8.02;;;14.00;97.90;;;;;;5058890;28;20033;-60
2022/10/26 06:09:13;;;;;;;8.23;6.47;;;13.90;98.00;;;;;;5062042;28;20029;-61
2022/10/26 06:11:38;;;;;;;9.50;7.85;;;14.00;97.90;;;;;;5064120;28;20025;-61
2022/10/26 06:14:06;;;;;;;8.98;6.70;;;14.00;97.70;;;;;;5068113;28;20039;-61
2022/10/26 06:16:45;;;;;;;8.88;6.97;;;14.00;97.70;;;;;;5071828;28;20024;-60
2022/10/26 06:19:11;;;;;;;9.73;7.43;;;14.00;97.60;;;;;;5073980;28;20539;-61
2022/10/26 06:21:55;;;;;;;9.40;7.90;;;14.10;97.70;;;;;;5068159;28;20206;-60
2022/10/26 06:24:30;;;;;;;10.07;8.20;;;14.10;97.40;;;;;;5060556;28;20036;-58
2022/10/26 06:27:01;;;;;;;9.23;7.05;;;14.10;97.60;;;;;;5064103;28;20056;-60
2022/10/26 06:29:36;;;;;;;8.40;6.82;;;14.10;97.60;;;;;;5064035;28;20085;-60
2022/10/26 06:32:01;;;;;;;8.88;7.07;;;14.10;97.50;;;;;;5061900;28;20111;-59
2022/10/26 06:34:33;;;;;;;9.55;7.85;;;14.20;97.60;;;;;;5062223;28;20036;-62
2022/10/26 06:36:59;;;;;;;;;;;14.20;97.50;;;;;;5053484;28;20077;-60
2022/10/26 06:39:28;;;;;;;8.40;6.43;;;14.20;97.20;;;;;;5062950;28;19919;-60
2022/10/26 06:41:56;;;;;;;8.70;6.75;;;14.30;97.60;;;;;;5054667;28;21584;-59
2022/10/26 06:44:23;;;;;;;9.57;6.78;;;14.30;97.40;;;;;;5068426;28;20032;-59
2022/10/26 06:47:21;;;;;;;9.18;6.60;;;14.30;97.20;;;;;;5061209;28;20032;-59
2022/10/26 06:50:05;;;;;;;8.95;7.20;;;14.40;96.70;;;;;;5049285;28;20444;-60
2022/10/26 06:52:38;;;;;;;7.85;6.68;;;14.40;96.60;;;;;;5054963;28;20032;-59
2022/10/26 06:55:05;;;;;;;8.63;7.32;;;14.40;96.70;;;;;;5051197;28;20694;-60
2022/10/26 06:57:35;;;;;;;8.35;6.55;;;14.40;96.70;;;;;;5063273;28;20108;-60
2022/10/26 07:00:15;;;;;;;7.47;6.07;;;14.40;96.60;;;;;;5057630;28;20052;-59
2022/10/26 07:02:41;;;;;;;7.10;6.30;;;14.50;96.60;;;;;;5044717;28;20033;-61
2022/10/26 07:05:11;;;;;;;7.05;6.00;;;14.50;96.70;;;;;;5041884;28;20673;-60
2022/10/26 07:07:41;;;;;;;8.07;6.43;;;14.50;96.70;;;;;;5047285;28;20028;-61
2022/10/26 07:10:08;;;;;;;6.88;5.97;;;14.60;96.70;;;;;;5042323;28;20455;-61
2022/10/26 07:12:34;;;;;;;7.43;6.30;;;14.60;96.70;;;;;;5045546;28;20492;-60
2022/10/26 07:15:00;;;;;;;8.13;6.60;;;14.70;96.60;;;;;;5050712;28;20032;-59
2022/10/26 07:17:27;;;;;;;8.63;6.15;;;14.80;96.40;;;;;;5043325;28;20033;-59
2022/10/26 07:19:53;;;;;;;8.05;6.20;;;14.80;96.20;;;;;;5059348;28;20067;-60
2022/10/26 07:22:19;;;;;;;6.32;5.68;;;14.90;96.00;;;;;;5052494;28;21217;-59
2022/10/26 07:24:49;;;;;;;7.63;6.30;;;14.90;95.80;;;;;;5049987;28;20055;-60
2022/10/26 07:27:15;;;;;;;6.90;5.55;;;15.00;95.60;;;;;;5054274;28;20127;-60
2022/10/26 07:29:40;;;;;;;6.20;5.20;;;15.10;95.20;;;;;;5048007;28;20032;-60
2022/10/26 07:32:06;;;;;;;7.55;5.57;;;15.10;95.00;;;;;;5034878;28;20984;-60
2022/10/26 07:34:32;;;;;;;5.47;4.53;;;15.10;94.70;;;;;;5035268;28;20052;-59
2022/10/26 07:37:00;;;;;;;6.55;5.10;;;15.20;94.30;;;;;;5040458;28;20040;-60
2022/10/26 07:39:26;;;;;;;6.75;5.10;;;15.10;94.10;;;;;;5042633;28;20036;-60
2022/10/26 07:41:51;;;;;;;5.90;5.07;;;15.20;94.00;;;;;;5042430;28;20105;-60
2022/10/26 07:44:17;;;;;;;5.80;4.85;;;15.20;93.80;;;;;;5040544;28;20115;-60
2022/10/26 07:46:43;;;;;;;5.80;4.65;;;15.20;93.80;;;;;;5044538;28;20044;-60
2022/10/26 07:49:09;;;;;;;6.63;5.30;;;15.20;93.70;;;;;;5040897;28;20787;-61
2022/10/26 07:51:35;;;;;;;5.22;4.40;;;15.20;93.50;;;;;;5048011;28;20028;-60
2022/10/26 07:54:01;;;;;;;6.38;5.03;;;15.30;93.40;;;;;;5038783;28;20055;-61
2022/10/26 07:56:27;;;;;;;5.40;4.47;;;15.30;93.10;;;;;;5035475;28;20116;-61
2022/10/26 07:58:53;;;;;;;5.57;4.57;;;15.30;93.10;;;;;;5034089;28;20151;-60
2022/10/26 08:01:19;;;;;;;4.85;4.10;;;15.30;93.00;;;;;;5034264;28;20036;-62
2022/10/26 08:03:45;;;;;;;4.22;3.47;;;15.30;93.00;;;;;;5042322;28;20377;-61
2022/10/26 08:06:11;;;;;;;4.85;4.18;;;15.40;92.90;;;;;;5053601;28;20081;-61
2022/10/26 08:08:36;;;;;;;4.90;3.80;;;15.40;92.50;;;;;;5047408;28;20064;-61
2022/10/26 08:11:02;;;;;;;4.97;3.88;;;15.40;92.40;;;;;;5046084;28;20029;-61
2022/10/26 08:13:28;;;;;;;4.80;3.95;;;15.40;92.00;;;;;;5046868;28;20031;-62
2022/10/26 08:16:03;;;;;;;5.03;4.25;;;15.40;91.80;;;;;;5041201;28;20804;-61
2022/10/26 08:18:30;;;;;;;5.10;4.57;;;15.40;91.70;;;;;;5046535;28;20033;-61
2022/10/26 08:21:05;;;;;;;5.40;4.70;;;15.40;91.50;;;;;;5049725;28;20540;-61
2022/10/26 08:23:31;;;;;;;5.25;4.22;;;15.40;91.40;;;;;;5045280;28;20135;-61
2022/10/26 08:25:58;;;;;;;4.70;4.18;;;15.30;91.40;;;;;;5041237;28;20041;-61
2022/10/26 08:28:24;;;;;;;6.22;4.53;;;15.30;91.40;;;;;;5047083;28;20105;-61
2022/10/26 08:30:50;;;;;;;5.20;4.47;;;15.30;91.30;;;;;;5046849;28;20023;-61
2022/10/26 08:33:15;;;;;;;5.20;4.47;;;15.30;91.50;;;;;;5049813;28;20080;-61
2022/10/26 08:35:41;;;;;;;5.18;4.43;;;15.30;91.50;;;;;;5050485;28;20024;-61
2022/10/26 08:38:07;;;;;;;4.82;4.05;;;15.20;91.40;;;;;;5042530;28;20078;-61
2022/10/26 08:40:38;;;;;;;5.75;4.60;;;15.30;91.40;;;;;;5049502;28;20050;-61
2022/10/26 08:43:13;;;;;;;5.47;4.43;;;15.30;91.30;;;;;;5040443;28;20024;-62
2022/10/26 08:45:44;;;;;;;5.80;4.60;;;15.30;91.20;;;;;;5032589;28;20070;-61
2022/10/26 08:48:20;;;;;;;5.03;4.50;;;15.30;91.30;;;;;;5042242;28;21277;-61
2022/10/26 08:50:55;;;;;;;5.68;4.40;;;15.30;91.10;;;;;;5044130;28;20025;-61
2022/10/26 08:53:40;;;;;;;5.35;4.68;;;15.30;91.20;;;;;;5045350;28;20029;-60
2022/10/26 08:56:20;;;;;;;5.40;4.43;;;15.40;91.20;;;;;;5046789;28;20032;-61
2022/10/26 08:58:59;;;;;;;4.55;3.92;;;15.40;91.10;;;;;;5047470;28;20021;-61
2022/10/26 09:01:25;;;;;;;5.35;4.20;;;15.40;91.20;;;;;;5038365;28;21723;-60
2022/10/26 09:03:51;;;;;;;5.70;4.70;;;15.40;90.90;;;;;;5039169;28;20068;-62
2022/10/26 09:06:56;;;;;;;5.30;4.47;;;15.40;90.80;;;;;;5040010;28;20039;-61
2022/10/26 09:09:54;;;;;;;5.88;4.50;;;15.50;90.70;;;;;;5039078;28;20102;-60
2022/10/26 09:12:39;;;;;;;6.15;4.63;;;15.50;90.80;;;;;;5027823;28;20569;-60
2022/10/26 09:15:14;;;;;;;5.05;4.45;;;15.50;90.70;;;;;;5018247;28;20033;-61
2022/10/26 09:18:21;;;;;;;5.35;4.13;;;15.40;90.50;;;;;;5042571;28;20040;-62
2022/10/26 09:21:16;;;;;;;4.72;3.83;;;15.40;90.40;;;;;;5040371;28;20053;-62
2022/10/26 09:23:48;;;;;;;6.03;4.70;;;15.40;90.60;;;;;;5005908;28;20175;-62
2022/10/26 09:26:31;;;;;;;7.60;4.55;;;15.40;90.50;;;;;;5034568;28;20032;-62
2022/10/26 09:29:02;;;;;;;6.10;4.93;;;15.40;90.50;;;;;;5018897;28;20891;-61
2022/10/26 09:31:29;;;;;;;5.68;4.82;;;15.30;90.50;;;;;;5036195;28;21374;-60
2022/10/26 09:33:55;;;;;;;5.28;4.43;;;15.40;90.70;;;;;;5030714;28;23363;-60
2022/10/26 09:36:22;;;;;;;5.75;4.93;;;15.40;90.80;;;;;;5032451;28;20306;-59
2022/10/26 09:38:59;;;;;;;6.07;4.85;;;15.40;90.70;;;;;;5034818;28;20029;-61
2022/10/26 09:41:28;;;;;;;5.38;4.70;;;15.50;90.80;;;;;;5040230;28;20617;-60
2022/10/26 09:44:11;;;;;;;5.30;4.80;;;15.50;90.70;;;;;;5040026;28;20036;-60
2022/10/26 09:46:45;;;;;;;5.47;4.75;;;15.60;90.60;;;;;;5038472;28;20143;-59
2022/10/26 09:49:14;;;;;;;6.30;4.35;;;15.60;90.60;;;;;;5039982;28;20037;-59
2022/10/26 09:51:41;;;;;;;4.18;3.65;;;15.70;90.60;;;;;;5031751;28;20145;-60
2022/10/26 09:54:15;;;;;;;6.15;4.75;;;15.70;90.50;;;;;;5041748;28;20153;-59
2022/10/26 09:56:44;;;;;;;5.78;4.90;;;15.70;90.40;;;;;;5032531;28;20028;-59
2022/10/26 09:59:11;;;;;;;6.40;4.60;;;15.80;90.30;;;;;;5033251;28;21385;-60
2022/10/26 10:01:36;;;;;;;5.60;4.70;;;15.80;90.30;;;;;;5035383;28;20094;-59
2022/10/26 10:04:21;;;;;;;7.53;4.97;;;15.80;90.20;;;;;;5037855;28;20037;-62
2022/10/26 10:07:02;;;;;;;6.03;4.90;;;15.80;90.10;;;;;;5024586;28;20594;-60
2022/10/26 10:09:27;;;;;;;5.40;4.20;;;15.80;90.20;;;;;;5037259;28;20043;-58
2022/10/26 10:12:00;;;;;;;5.70;4.22;;;15.80;90.10;;;;;;5039413;28;20033;-58
2022/10/26 10:14:26;;;;;;;4.63;3.92;;;15.80;89.80;;;;;;5035806;28;20036;-59
2022/10/26 10:17:04;;;;;;;5.00;4.03;;;15.80;89.60;;;;;;5053664;28;20155;-59
2022/10/26 10:19:32;;;;;;;3.95;3.55;;;15.80;89.70;;;;;;5031531;28;21172;-60
2022/10/26 10:22:17;;;;;;;4.55;3.97;;;15.70;89.80;;;;;;5037949;28;20056;-60
2022/10/26 10:24:55;;;;;;;6.10;3.80;;;15.70;89.80;;;;;;5049701;28;20036;-60
2022/10/26 10:27:22;;;;;;;5.32;4.20;;;15.70;90.00;;;;;;5031375;28;20144;-59
2022/10/26 10:29:57;;;;;;;5.43;4.10;;;15.70;90.10;;;;;;5045902;28;20032;-57
2022/10/26 10:32:32;;;;;;;5.10;3.97;;;15.60;90.00;;;;;;5034781;28;20029;-58
2022/10/26 10:34:59;;;;;;;4.97;3.97;;;15.60;90.10;;;;;;5031299;28;20232;-60
2022/10/26 10:37:33;;;;;;;5.57;3.53;;;15.60;90.20;;;;;;5025571;28;20028;-60
2022/10/26 10:40:26;;;;;;;8.82;5.70;;;15.60;90.20;;;;;;5037432;28;20050;-55
2022/10/26 10:43:02;;;;;;;5.72;3.50;;;15.60;90.30;;;;;;5041657;28;20132;-56
2022/10/26 10:45:29;;;;;;;5.32;3.55;;;15.60;90.50;;;;;;5040264;28;20733;-59
2022/10/26 10:48:13;;;;;;;5.07;4.45;;;15.60;90.70;;;;;;5040415;28;20043;-59
2022/10/26 10:51:11;;;;;;;4.47;3.72;;;15.70;90.50;;;;;;5040799;28;20025;-59
2022/10/26 10:53:50;;;;;;;4.95;3.60;;;15.70;90.30;;;;;;5027321;28;20020;-61
2022/10/26 10:56:37;;;;;;;4.47;3.70;;;15.70;90.30;;;;;;5033702;28;20079;-60
2022/10/26 10:59:24;;;;;;;3.90;3.42;;;15.70;90.30;;;;;;5043127;28;20633;-58
2022/10/26 11:02:01;;;;;;;4.45;3.80;;;15.80;90.30;;;;;;5041615;28;20036;-60
2022/10/26 11:04:32;;;;;;;4.32;3.60;;;15.80;90.20;;;;;;5052760;28;20106;-59
2022/10/26 11:07:01;;;;;;;4.40;3.60;;;15.80;90.10;;;;;;5048013;28;20064;-59
2022/10/26 11:09:30;;;;;;;4.68;3.78;;;15.80;90.10;;;;;;5041230;28;20055;-62
2022/10/26 11:12:42;;;;;;;5.63;4.90;;;15.80;90.00;;;;;;5046925;28;20028;-60
2022/10/26 11:15:15;;;;;;;4.18;3.50;;;15.80;89.50;;;;;;5044506;28;20040;-59
2022/10/26 11:17:52;;;;;;;4.07;3.63;;;15.80;89.70;;;;;;5048861;28;20029;-60
2022/10/26 11:20:22;;;;;;;3.92;3.53;;;15.80;89.60;;;;;;5060171;28;20036;-59
2022/10/26 11:23:21;;;;;;;4.13;3.40;;;15.70;89.60;;;;;;5047503;28;20028;-59
2022/10/26 11:26:03;;;;;;;4.00;3.60;;;15.70;89.40;;;;;;5054409;28;20546;-59
2022/10/26 11:28:47;;;;;;;4.63;3.22;;;15.70;89.20;;;;;;5053640;28;20503;-61
2022/10/26 11:31:20;;;;;;;4.35;3.40;;;15.70;89.00;;;;;;5049327;28;20036;-60
2022/10/26 11:34:04;;;;;;;5.43;3.53;;;15.70;88.90;;;;;;5051659;28;20980;-60
2022/10/26 11:36:32;;;;;;;5.45;3.67;;;15.70;88.70;;;;;;5059258;28;20023;-60
2022/10/26 11:39:22;;;;;;;3.78;3.38;;;15.70;88.40;;;;;;5050230;28;20029;-60
2022/10/26 11:42:02;;;;;;;4.10;3.58;;;15.70;88.30;;;;;;5048177;28;21642;-60
2022/10/26 11:44:38;;;;;;;3.85;3.15;;;15.60;88.00;;;;;;5050236;28;20040;-59
2022/10/26 11:47:18;;;;;;;3.95;3.40;;;15.60;87.90;;;;;;5036566;28;20033;-60
2022/10/26 11:49:59;;;;;;;3.70;3.20;;;15.60;87.90;;;;;;5039658;28;20023;-60
2022/10/26 11:52:35;;;;;;;4.00;3.60;;;15.60;87.80;;;;;;5039372;28;20029;-60
2022/10/26 11:55:03;;;;;;;4.03;3.53;;;15.60;87.90;;;;;;5044978;28;20477;-60
2022/10/26 11:57:32;;;;;;;3.72;3.25;;;15.70;87.90;;;;;;5040813;28;20032;-59
2022/10/26 12:00:01;;;;;;;3.50;3.20;;;15.70;87.70;;;;;;5048326;28;21163;-60
2022/10/26 12:02:27;;;;;;;3.72;3.15;;;15.80;87.50;;;;;;5037430;28;20046;-58
2022/10/26 12:04:59;;;;;;;4.28;3.88;;;15.90;87.20;;;;;;5015747;28;20116;-60
2022/10/26 12:07:53;;;;;;;3.08;2.78;;;15.90;86.50;;;;;;5032745;28;20033;-58
2022/10/26 12:10:29;;;;;;;3.42;3.08;;;15.90;86.10;;;;;;5042844;28;20028;-58
2022/10/26 12:13:20;;;;;;;3.80;3.10;;;15.90;86.10;;;;;;5037403;28;20021;-59
2022/10/26 12:15:50;;;;;;;3.33;3.00;;;15.90;85.90;;;;;;5030452;28;20033;-59
2022/10/26 12:18:23;;;;;;;3.50;3.20;;;15.90;85.80;;;;;;5042082;28;20503;-59
2022/10/26 12:21:01;;;;;;;3.70;3.00;;;15.90;85.60;;;;;;5029627;28;20024;-59
2022/10/26 12:23:33;;;;;;;3.45;3.15;;;15.80;85.50;;;;;;5028975;28;20172;-58
2022/10/26 12:26:23;;;;;;;3.28;2.97;;;15.80;85.50;;;;;;5025604;28;20050;-58
2022/10/26 12:29:01;;;;;;;5.60;4.38;;;15.80;85.50;;;;;;5036428;28;20028;-59
2022/10/26 12:31:36;;;;;;;5.47;4.05;;;15.80;85.70;;;;;;5026610;28;20656;-59
2022/10/26 12:34:30;;;;;;;4.10;3.40;;;15.80;85.70;;;;;;5037559;28;20032;-58
2022/10/26 12:36:56;;;;;;;4.60;3.67;;;15.80;85.70;;;;;;5023598;28;20041;-59
2022/10/26 12:39:40;;;;;;;4.35;3.45;;;15.80;85.80;;;;;;5031821;28;20083;-59
2022/10/26 12:42:09;;;;;;;3.20;2.90;;;15.80;85.80;;;;;;5036746;28;20036;-57
2022/10/26 12:44:35;;;;;;;3.80;3.10;;;15.80;85.90;;;;;;5045530;28;20574;-59
2022/10/26 12:47:02;;;;;;;4.28;3.30;;;15.80;85.80;;;;;;5039068;28;21438;-60
2022/10/26 12:49:58;;;;;;;4.25;3.35;;;15.80;85.90;;;;;;5039307;28;20116;-58
2022/10/26 12:52:52;;;;;;;3.58;3.25;;;15.80;85.90;;;;;;5036016;28;20032;-58
2022/10/26 12:55:32;;;;;;;3.78;3.08;;;15.80;85.90;;;;;;5042132;28;20040;-60
2022/10/26 12:58:22;;;;;;;4.35;3.45;;;15.70;85.80;;;;;;5039237;28;20037;-60
2022/10/26 13:01:18;;;;;;;4.43;3.72;;;15.70;85.80;;;;;;5040462;28;20141;-58
2022/10/26 13:03:47;;;;;;;3.40;2.90;;;15.70;85.80;;;;;;5036142;28;20434;-60
2022/10/26 13:06:45;;;;;;;3.50;3.20;;;15.70;85.90;;;;;;5045357;28;20068;-59
2022/10/26 13:09:19;;;;;;;3.92;3.53;;;15.70;85.90;;;;;;5044678;28;20035;-58